createdAt,value
2016-06-22T00:00:36.282Z,0
2016-06-22T00:02:04.799Z,0
2016-06-22T00:02:57.438Z,0
2016-06-22T00:03:36.262Z,0
2016-06-22T00:04:36.362Z,0
2016-06-22T00:05:36.237Z,0
2016-06-22T00:06:36.261Z,0
2016-06-22T00:07:36.254Z,0
2016-06-22T00:08:36.345Z,0
2016-06-22T00:09:36.682Z,0
2016-06-22T00:10:36.347Z,0
2016-06-22T00:11:36.350Z,0
2016-06-22T00:12:36.594Z,0
2016-06-22T00:13:36.300Z,0
2016-06-22T00:14:36.234Z,0
2016-06-22T00:15:36.482Z,0
2016-06-22T00:16:36.524Z,0
2016-06-22T00:17:36.333Z,0
2016-06-22T00:18:36.674Z,0
2016-06-22T00:19:36.296Z,0
2016-06-22T00:20:36.348Z,0
2016-06-22T00:21:36.296Z,0
2016-06-22T00:22:36.279Z,0
2016-06-22T00:23:37.453Z,0
2016-06-22T00:24:36.371Z,0
2016-06-22T00:25:36.390Z,0
2016-06-22T00:26:36.367Z,0
2016-06-22T00:27:36.509Z,0
2016-06-22T00:28:36.373Z,0
2016-06-22T00:29:36.389Z,0
2016-06-22T00:30:36.541Z,0
2016-06-22T00:31:36.348Z,0
2016-06-22T00:32:36.432Z,0
2016-06-22T00:33:36.486Z,0
2016-06-22T00:34:36.311Z,0
2016-06-22T00:35:36.422Z,0
2016-06-22T00:36:37.015Z,0
2016-06-22T00:37:36.315Z,0
2016-06-22T00:38:36.298Z,0
2016-06-22T00:39:36.905Z,0
2016-06-22T00:40:36.383Z,0
2016-06-22T00:41:36.341Z,0
2016-06-22T00:42:36.276Z,0
2016-06-22T00:43:36.357Z,0
2016-06-22T00:44:36.366Z,0
2016-06-22T00:45:36.473Z,0
2016-06-22T00:46:36.828Z,0
2016-06-22T00:47:36.453Z,0
2016-06-22T00:48:36.466Z,0
2016-06-22T00:49:36.422Z,0
2016-06-22T00:50:38.383Z,0
2016-06-22T00:51:37.233Z,0
2016-06-22T00:52:36.455Z,0
2016-06-22T00:53:36.342Z,0
2016-06-22T00:54:36.450Z,0
2016-06-22T00:55:36.284Z,0
2016-06-22T00:56:36.329Z,0
2016-06-22T00:57:36.332Z,0
2016-06-22T00:58:36.285Z,0
2016-06-22T00:59:36.331Z,0
2016-06-22T01:00:36.480Z,0
2016-06-22T01:01:36.345Z,0
2016-06-22T01:02:36.345Z,0
2016-06-22T01:03:36.349Z,0
2016-06-22T01:04:36.383Z,0
2016-06-22T01:05:36.372Z,0
2016-06-22T01:06:36.334Z,0
2016-06-22T01:07:36.292Z,0
2016-06-22T01:08:36.482Z,0
2016-06-22T01:09:36.459Z,0
2016-06-22T01:10:36.385Z,0
2016-06-22T01:11:36.445Z,0
2016-06-22T01:12:36.351Z,0
2016-06-22T01:13:36.380Z,0
2016-06-22T01:14:36.341Z,0
2016-06-22T01:15:37.001Z,0
2016-06-22T01:16:36.338Z,0
2016-06-22T01:17:36.316Z,0
2016-06-22T01:18:36.261Z,0
2016-06-22T01:19:36.369Z,0
2016-06-22T01:20:36.372Z,0
2016-06-22T01:21:36.512Z,0
2016-06-22T01:22:36.338Z,0
2016-06-22T01:23:36.493Z,0
2016-06-22T01:24:36.414Z,0
2016-06-22T01:25:36.382Z,0
2016-06-22T01:26:36.366Z,0
2016-06-22T01:27:36.433Z,0
2016-06-22T01:28:36.370Z,0
2016-06-22T01:29:36.474Z,0
2016-06-22T01:30:36.374Z,0
2016-06-22T01:31:36.368Z,0
2016-06-22T01:32:36.374Z,0
2016-06-22T01:33:36.436Z,0
2016-06-22T01:34:36.398Z,0
2016-06-22T01:35:36.395Z,0
2016-06-22T01:36:36.337Z,0
2016-06-22T01:37:36.369Z,0
2016-06-22T01:38:36.485Z,0
2016-06-22T01:39:36.417Z,0
2016-06-22T01:40:36.522Z,0
2016-06-22T01:41:36.485Z,0
2016-06-22T01:42:36.679Z,0
2016-06-22T01:43:36.480Z,0
2016-06-22T01:44:36.632Z,0
2016-06-22T01:45:36.556Z,0
2016-06-22T01:46:36.458Z,0
2016-06-22T01:47:36.543Z,0
2016-06-22T01:48:37.374Z,0
2016-06-22T01:49:36.400Z,0
2016-06-22T01:50:36.396Z,0
2016-06-22T01:51:37.409Z,0
2016-06-22T01:52:36.448Z,0
2016-06-22T01:53:36.450Z,0
2016-06-22T01:54:36.653Z,0
2016-06-22T01:55:36.406Z,0
2016-06-22T01:56:36.660Z,0
2016-06-22T01:57:36.699Z,0
2016-06-22T01:58:36.501Z,0
2016-06-22T01:59:36.387Z,0
2016-06-22T02:00:36.507Z,0
2016-06-22T02:01:36.579Z,0
2016-06-22T02:02:36.389Z,0
2016-06-22T02:03:36.468Z,0
2016-06-22T02:04:36.466Z,0
2016-06-22T02:05:36.476Z,0
2016-06-22T02:06:36.521Z,0
2016-06-22T02:07:36.441Z,0
2016-06-22T02:08:36.522Z,0
2016-06-22T02:09:36.571Z,0
2016-06-22T02:10:36.374Z,0
2016-06-22T02:11:36.493Z,0
2016-06-22T02:12:36.502Z,0
2016-06-22T02:13:36.503Z,0
2016-06-22T02:14:36.456Z,0
2016-06-22T02:15:37.349Z,0
2016-06-22T02:16:36.443Z,0
2016-06-22T02:18:21.535Z,0
2016-06-22T02:19:19.361Z,0
2016-06-22T02:20:08.367Z,0
2016-06-22T02:21:08.134Z,0
2016-06-22T02:22:08.106Z,0
2016-06-22T02:23:08.471Z,0
2016-06-22T02:24:08.086Z,0
2016-06-22T02:25:08.151Z,0
2016-06-22T02:27:27.613Z,0
2016-06-22T02:28:48.616Z,0
2016-06-22T02:29:46.777Z,0
2016-06-22T02:31:06.026Z,0
2016-06-22T02:32:35.848Z,0
2016-06-22T02:34:18.131Z,0
2016-06-22T02:36:03.246Z,0
2016-06-22T02:37:41.930Z,0
2016-06-22T02:38:37.111Z,0
2016-06-22T02:40:23.795Z,0
2016-06-22T02:41:13.809Z,0
2016-06-22T02:41:39.227Z,0
2016-06-22T02:42:39.232Z,0
2016-06-22T02:43:39.176Z,0
2016-06-22T02:44:39.353Z,0
2016-06-22T02:45:39.591Z,0
2016-06-22T02:46:39.253Z,0
2016-06-22T02:47:39.215Z,0
2016-06-22T02:48:39.262Z,0
2016-06-22T02:49:39.266Z,0
2016-06-22T02:50:39.494Z,0
2016-06-22T02:51:40.509Z,0
2016-06-22T02:52:39.254Z,0
2016-06-22T02:53:39.219Z,0
2016-06-22T02:54:39.509Z,0
2016-06-22T02:55:39.207Z,0
2016-06-22T02:56:39.301Z,0
2016-06-22T02:57:39.465Z,0
2016-06-22T02:58:39.511Z,0
2016-06-22T03:01:23.041Z,0
2016-06-22T03:02:24.729Z,0
2016-06-22T03:03:43.062Z,0
2016-06-22T03:04:39.459Z,0
2016-06-22T03:05:57.323Z,0
2016-06-22T03:07:58.079Z,0
2016-06-22T03:09:22.804Z,0
2016-06-22T03:11:18.163Z,5
2016-06-22T03:11:46.676Z,5
2016-06-22T03:12:32.403Z,5
2016-06-22T03:13:32.334Z,5
2016-06-22T03:14:32.325Z,5
2016-06-22T03:15:32.353Z,5
2016-06-22T03:16:32.342Z,5
2016-06-22T03:17:32.378Z,5
2016-06-22T03:18:32.353Z,5
2016-06-22T03:19:32.334Z,5
2016-06-22T03:20:32.385Z,10
2016-06-22T03:21:32.383Z,10
2016-06-22T03:22:32.306Z,10
2016-06-22T03:23:32.408Z,5
2016-06-22T03:24:32.298Z,10
2016-06-22T03:25:32.348Z,10
2016-06-22T03:26:32.425Z,10
2016-06-22T03:27:32.450Z,10
2016-06-22T03:28:32.382Z,10
2016-06-22T03:29:32.411Z,10
2016-06-22T03:30:32.373Z,10
2016-06-22T03:31:32.308Z,10
2016-06-22T03:32:32.301Z,5
2016-06-22T03:33:32.417Z,10
2016-06-22T03:34:32.419Z,10
2016-06-22T03:35:32.451Z,10
2016-06-22T03:36:32.322Z,10
2016-06-22T03:37:32.351Z,10
2016-06-22T03:38:32.383Z,15
2016-06-22T03:39:32.294Z,15
2016-06-22T03:40:32.353Z,15
2016-06-22T03:41:32.299Z,15
2016-06-22T03:42:32.387Z,15
2016-06-22T03:43:32.339Z,20
2016-06-22T03:44:32.322Z,25
2016-06-22T03:45:32.347Z,25
2016-06-22T03:46:32.356Z,25
2016-06-22T03:47:32.741Z,20
2016-06-22T03:48:32.428Z,25
2016-06-22T03:49:32.359Z,25
2016-06-22T03:50:32.346Z,30
2016-06-22T03:51:32.362Z,35
2016-06-22T03:52:32.396Z,35
2016-06-22T03:53:32.414Z,35
2016-06-22T03:54:32.415Z,45
2016-06-22T03:55:32.428Z,50
2016-06-22T03:56:32.418Z,55
2016-06-22T03:57:32.459Z,60
2016-06-22T03:58:32.473Z,65
2016-06-22T03:59:32.498Z,75
2016-06-22T04:00:32.966Z,75
2016-06-22T04:01:32.431Z,80
2016-06-22T04:02:32.418Z,80
2016-06-22T04:03:32.403Z,80
2016-06-22T04:04:32.464Z,80
2016-06-22T04:05:32.389Z,75
2016-06-22T04:06:32.419Z,75
2016-06-22T04:07:32.453Z,75
2016-06-22T04:08:32.407Z,75
2016-06-22T04:09:32.488Z,80
2016-06-22T04:10:32.408Z,85
2016-06-22T04:11:32.460Z,80
2016-06-22T04:12:32.380Z,80
2016-06-22T04:13:32.435Z,85
2016-06-22T04:14:32.325Z,90
2016-06-22T04:15:32.318Z,95
2016-06-22T04:16:32.472Z,95
2016-06-22T04:17:32.510Z,95
2016-06-22T04:18:32.452Z,95
2016-06-22T04:19:32.376Z,95
2016-06-22T04:20:32.760Z,90
2016-06-22T04:21:32.424Z,80
2016-06-22T04:22:32.354Z,80
2016-06-22T04:23:32.477Z,80
2016-06-22T04:24:32.589Z,75
2016-06-22T04:25:32.416Z,65
2016-06-22T04:26:33.099Z,60
2016-06-22T04:27:32.514Z,70
2016-06-22T04:28:32.499Z,75
2016-06-22T04:29:32.407Z,75
2016-06-22T04:30:32.465Z,75
2016-06-22T04:31:32.399Z,75
2016-06-22T04:32:32.559Z,95
2016-06-22T04:33:32.357Z,120
2016-06-22T04:34:32.406Z,140
2016-06-22T04:35:32.475Z,155
2016-06-22T04:36:32.422Z,170
2016-06-22T04:37:32.481Z,185
2016-06-22T04:38:32.389Z,200
2016-06-22T04:39:32.491Z,210
2016-06-22T04:40:32.343Z,230
2016-06-22T04:41:32.493Z,245
2016-06-22T04:42:32.401Z,260
2016-06-22T04:43:32.419Z,270
2016-06-22T04:44:32.370Z,285
2016-06-22T04:45:32.450Z,290
2016-06-22T04:46:32.460Z,295
2016-06-22T04:47:32.391Z,295
2016-06-22T04:48:32.378Z,290
2016-06-22T04:49:32.424Z,290
2016-06-22T04:50:32.445Z,285
2016-06-22T04:52:06.490Z,270
2016-06-22T04:53:16.862Z,245
2016-06-22T04:54:16.604Z,210
2016-06-22T04:54:51.270Z,210
2016-06-22T04:55:54.299Z,195
2016-06-22T04:57:32.613Z,180
2016-06-22T04:58:57.395Z,170
2016-06-22T05:00:43.721Z,175
2016-06-22T05:02:06.516Z,215
2016-06-22T05:03:27.650Z,175
2016-06-22T05:04:49.150Z,145
2016-06-22T05:06:09.353Z,145
2016-06-22T05:07:20.534Z,135
2016-06-22T05:08:40.715Z,140
2016-06-22T05:10:00.589Z,130
2016-06-22T05:10:39.640Z,150
2016-06-22T05:12:09.776Z,215
2016-06-22T05:12:41.744Z,240
2016-06-22T05:13:30.413Z,275
2016-06-22T05:14:31.026Z,265
2016-06-22T05:15:30.368Z,260
2016-06-22T05:17:22.679Z,240
2016-06-22T05:17:33.257Z,235
2016-06-22T05:18:33.227Z,215
2016-06-22T05:19:33.219Z,220
2016-06-22T05:20:33.258Z,185
2016-06-22T05:21:33.218Z,175
2016-06-22T05:22:33.131Z,185
2016-06-22T05:23:33.266Z,165
2016-06-22T05:24:33.184Z,145
2016-06-22T05:25:33.554Z,180
2016-06-22T05:26:33.125Z,225
2016-06-22T05:27:33.209Z,255
2016-06-22T05:28:33.326Z,330
2016-06-22T05:29:33.269Z,340
2016-06-22T05:30:33.268Z,375
2016-06-22T05:32:03.040Z,315
2016-06-22T05:32:33.189Z,365
2016-06-22T05:33:33.415Z,380
2016-06-22T05:34:33.143Z,375
2016-06-22T05:35:33.208Z,320
2016-06-22T05:36:33.216Z,300
2016-06-22T05:37:33.200Z,235
2016-06-22T05:38:33.207Z,255
2016-06-22T05:39:33.230Z,230
2016-06-22T05:40:33.310Z,210
2016-06-22T05:41:33.153Z,210
2016-06-22T05:42:33.111Z,225
2016-06-22T05:43:33.155Z,220
2016-06-22T05:44:33.034Z,205
2016-06-22T05:45:32.984Z,195
2016-06-22T05:46:33.017Z,230
2016-06-22T05:47:32.992Z,220
2016-06-22T05:48:32.991Z,220
2016-06-22T05:49:33.257Z,185
2016-06-22T05:50:33.026Z,220
2016-06-22T05:51:32.961Z,260
2016-06-22T05:52:33.055Z,260
2016-06-22T05:53:33.055Z,210
2016-06-22T05:54:33.023Z,175
2016-06-22T05:55:33.001Z,185
2016-06-22T05:56:32.968Z,190
2016-06-22T05:57:33.056Z,205
2016-06-22T05:58:33.014Z,200
2016-06-22T05:59:32.985Z,195
2016-06-22T06:00:32.973Z,190
2016-06-22T06:01:33.110Z,185
2016-06-22T06:02:33.072Z,185
2016-06-22T06:03:33.041Z,175
2016-06-22T06:04:33.045Z,170
2016-06-22T06:05:33.035Z,180
2016-06-22T06:06:33.052Z,180
2016-06-22T06:07:33.111Z,200
2016-06-22T06:08:33.149Z,220
2016-06-22T06:09:33.501Z,240
2016-06-22T06:10:33.169Z,250
2016-06-22T06:11:33.141Z,275
2016-06-22T06:12:33.082Z,285
2016-06-22T06:13:32.958Z,275
2016-06-22T06:14:33.052Z,280
2016-06-22T06:15:33.044Z,285
2016-06-22T06:16:33.009Z,295
2016-06-22T06:17:33.041Z,305
2016-06-22T06:18:33.063Z,300
2016-06-22T06:19:33.016Z,300
2016-06-22T06:20:33.062Z,300
2016-06-22T06:21:33.006Z,300
2016-06-22T06:22:33.039Z,300
2016-06-22T06:23:33.038Z,295
2016-06-22T06:24:32.961Z,295
2016-06-22T06:25:33.054Z,285
2016-06-22T06:26:33.014Z,235
2016-06-22T06:27:33.050Z,240
2016-06-22T06:28:33.080Z,275
2016-06-22T06:29:33.020Z,320
2016-06-22T06:30:33.055Z,330
2016-06-22T06:31:33.021Z,305
2016-06-22T06:32:33.046Z,315
2016-06-22T06:33:33.062Z,355
2016-06-22T06:34:33.059Z,405
2016-06-22T06:35:33.055Z,465
2016-06-22T06:36:33.071Z,500
2016-06-22T06:37:33.078Z,520
2016-06-22T06:38:33.078Z,525
2016-06-22T06:39:33.027Z,575
2016-06-22T06:40:33.678Z,610
2016-06-22T06:41:33.087Z,645
2016-06-22T06:42:33.128Z,610
2016-06-22T06:43:33.114Z,770
2016-06-22T06:44:33.099Z,985
2016-06-22T06:45:33.160Z,965
2016-06-22T06:46:33.051Z,605
2016-06-22T06:47:33.074Z,540
2016-06-22T06:48:33.038Z,450
2016-06-22T06:49:33.042Z,1110
2016-06-22T06:50:33.058Z,635
2016-06-22T06:51:33.037Z,1165
2016-06-22T06:52:33.087Z,990
2016-06-22T06:53:33.055Z,1195
2016-06-22T06:54:33.056Z,1325
2016-06-22T06:55:33.249Z,1185
2016-06-22T06:56:33.152Z,1010
2016-06-22T06:57:33.214Z,405
2016-06-22T06:58:34.845Z,600
2016-06-22T06:59:33.167Z,660
2016-06-22T07:00:33.087Z,405
2016-06-22T07:01:33.078Z,230
2016-06-22T07:02:33.216Z,205
2016-06-22T07:03:33.081Z,195
2016-06-22T07:04:33.054Z,210
2016-06-22T07:05:33.070Z,230
2016-06-22T07:06:33.038Z,205
2016-06-22T07:07:33.046Z,240
2016-06-22T07:08:33.061Z,340
2016-06-22T07:09:33.076Z,395
2016-06-22T07:10:33.067Z,395
2016-06-22T07:11:33.110Z,380
2016-06-22T07:12:33.119Z,550
2016-06-22T07:13:33.021Z,575
2016-06-22T07:14:33.146Z,670
2016-06-22T07:15:33.106Z,710
2016-06-22T07:16:33.171Z,550
2016-06-22T07:17:35.245Z,650
2016-06-22T07:18:33.199Z,950
2016-06-22T07:19:34.053Z,650
2016-06-22T07:20:33.122Z,815
2016-06-22T07:21:34.980Z,1165
2016-06-22T07:22:33.279Z,1425
2016-06-22T07:23:33.083Z,580
2016-06-22T07:24:33.331Z,550
2016-06-22T07:25:34.885Z,550
2016-06-22T07:26:33.081Z,1420
2016-06-22T07:27:33.547Z,1140
2016-06-22T07:28:33.341Z,1030
2016-06-22T07:29:33.259Z,990
2016-06-22T07:30:33.721Z,1325
2016-06-22T07:31:33.298Z,1435
2016-06-22T07:32:33.249Z,615
2016-06-22T07:33:34.007Z,1280
2016-06-22T07:34:33.673Z,735
2016-06-22T07:35:33.517Z,1585
2016-06-22T07:36:33.294Z,1635
2016-06-22T07:37:33.232Z,1425
2016-06-22T07:38:33.820Z,1475
2016-06-22T07:39:33.735Z,1115
2016-06-22T07:40:33.417Z,1105
2016-06-22T07:41:33.143Z,820
2016-06-22T07:42:33.068Z,1145
2016-06-22T07:43:33.075Z,1085
2016-06-22T07:44:33.344Z,420
2016-06-22T07:45:33.273Z,390
2016-06-22T07:46:33.114Z,305
2016-06-22T07:47:33.113Z,425
2016-06-22T07:48:33.131Z,490
2016-06-22T07:49:33.116Z,400
2016-06-22T07:50:33.121Z,370
2016-06-22T07:51:33.147Z,385
2016-06-22T07:52:33.109Z,275
2016-06-22T07:53:33.108Z,540
2016-06-22T07:54:33.076Z,540
2016-06-22T07:55:33.112Z,1325
2016-06-22T07:56:33.149Z,610
2016-06-22T07:57:33.189Z,885
2016-06-22T07:58:33.171Z,505
2016-06-22T07:59:33.125Z,700
2016-06-22T08:00:33.127Z,630
2016-06-22T08:01:33.111Z,635
2016-06-22T08:02:33.194Z,585
2016-06-22T08:03:33.127Z,560
2016-06-22T08:04:33.135Z,590
2016-06-22T08:05:33.174Z,650
2016-06-22T08:06:33.130Z,660
2016-06-22T08:07:33.127Z,665
2016-06-22T08:08:33.146Z,640
2016-06-22T08:09:33.110Z,630
2016-06-22T08:10:33.134Z,620
2016-06-22T08:11:33.123Z,560
2016-06-22T08:12:33.133Z,475
2016-06-22T08:13:33.152Z,440
2016-06-22T08:14:33.130Z,580
2016-06-22T08:15:33.145Z,535
2016-06-22T08:16:33.112Z,435
2016-06-22T08:17:33.089Z,410
2016-06-22T08:18:33.608Z,500
2016-06-22T08:19:33.138Z,500
2016-06-22T08:20:33.175Z,480
2016-06-22T08:21:33.160Z,475
2016-06-22T08:22:33.286Z,550
2016-06-22T08:23:33.771Z,675
2016-06-22T08:24:33.269Z,660
2016-06-22T08:25:33.180Z,515
2016-06-22T08:26:33.239Z,430
2016-06-22T08:27:33.160Z,435
2016-06-22T08:28:33.146Z,400
2016-06-22T08:29:33.319Z,545
2016-06-22T08:30:33.287Z,515
2016-06-22T08:31:33.219Z,535
2016-06-22T08:32:33.123Z,445
2016-06-22T08:33:33.162Z,315
2016-06-22T08:34:33.392Z,290
2016-06-22T08:35:33.261Z,285
2016-06-22T08:36:33.112Z,280
2016-06-22T08:37:33.161Z,335
2016-06-22T08:38:33.195Z,420
2016-06-22T08:39:33.201Z,435
2016-06-22T08:40:33.239Z,410
2016-06-22T08:41:33.226Z,430
2016-06-22T08:42:33.183Z,500
2016-06-22T08:43:33.229Z,430
2016-06-22T08:44:33.162Z,395
2016-06-22T08:45:33.182Z,350
2016-06-22T08:46:33.229Z,335
2016-06-22T08:47:33.180Z,345
2016-06-22T08:48:33.236Z,380
2016-06-22T08:49:33.143Z,405
2016-06-22T08:50:33.253Z,375
2016-06-22T08:51:33.172Z,295
2016-06-22T08:52:34.446Z,310
2016-06-22T08:53:33.160Z,350
2016-06-22T08:54:33.317Z,370
2016-06-22T08:55:34.314Z,460
2016-06-22T08:56:33.225Z,435
2016-06-22T08:57:33.239Z,475
2016-06-22T08:58:33.214Z,520
2016-06-22T08:59:33.356Z,430
2016-06-22T09:00:33.189Z,445
2016-06-22T09:01:33.464Z,505
2016-06-22T09:02:33.655Z,510
2016-06-22T09:03:33.447Z,500
2016-06-22T09:04:33.519Z,470
2016-06-22T09:05:33.215Z,405
2016-06-22T09:06:33.427Z,395
2016-06-22T09:07:33.189Z,435
2016-06-22T09:08:33.313Z,470
2016-06-22T09:09:33.290Z,450
2016-06-22T09:10:33.335Z,490
2016-06-22T09:11:34.062Z,470
2016-06-22T09:12:33.363Z,480
2016-06-22T09:13:33.303Z,480
2016-06-22T09:14:34.213Z,480
2016-06-22T09:15:33.377Z,460
2016-06-22T09:16:33.314Z,485
2016-06-22T09:17:33.553Z,470
2016-06-22T09:18:33.405Z,435
2016-06-22T09:19:33.391Z,370
2016-06-22T09:20:33.211Z,410
2016-06-22T09:21:33.205Z,355
2016-06-22T09:22:33.464Z,345
2016-06-22T09:23:33.223Z,380
2016-06-22T09:24:33.219Z,330
2016-06-22T09:25:33.254Z,290
2016-06-22T09:26:33.573Z,385
2016-06-22T09:27:33.252Z,465
2016-06-22T09:28:33.318Z,455
2016-06-22T09:29:33.347Z,425
2016-06-22T09:30:33.285Z,365
2016-06-22T09:31:33.315Z,345
2016-06-22T09:32:33.205Z,300
2016-06-22T09:33:33.392Z,330
2016-06-22T09:34:33.238Z,395
2016-06-22T09:35:33.256Z,345
2016-06-22T09:36:33.219Z,310
2016-06-22T09:37:33.257Z,330
2016-06-22T09:38:33.845Z,345
2016-06-22T09:39:34.043Z,350
2016-06-22T09:40:33.238Z,300
2016-06-22T09:41:33.217Z,290
2016-06-22T09:42:33.298Z,305
2016-06-22T09:43:33.480Z,325
2016-06-22T09:44:33.248Z,335
2016-06-22T09:45:33.333Z,300
2016-06-22T09:46:33.366Z,295
2016-06-22T09:47:33.330Z,305
2016-06-22T09:48:33.328Z,280
2016-06-22T09:49:33.396Z,305
2016-06-22T09:50:33.369Z,305
2016-06-22T09:51:33.346Z,345
2016-06-22T09:52:33.414Z,320
2016-06-22T09:53:33.467Z,345
2016-06-22T09:54:33.447Z,360
2016-06-22T09:55:33.468Z,360
2016-06-22T09:56:33.633Z,335
2016-06-22T09:57:33.520Z,315
2016-06-22T09:58:33.463Z,325
2016-06-22T09:59:33.337Z,335
2016-06-22T10:00:33.414Z,380
2016-06-22T10:01:33.392Z,415
2016-06-22T10:02:33.548Z,455
2016-06-22T10:03:33.431Z,475
2016-06-22T10:04:33.415Z,465
2016-06-22T10:05:33.389Z,455
2016-06-22T10:06:33.347Z,490
2016-06-22T10:07:33.499Z,520
2016-06-22T10:08:33.617Z,560
2016-06-22T10:09:33.467Z,525
2016-06-22T10:10:33.391Z,525
2016-06-22T10:11:33.524Z,525
2016-06-22T10:12:33.334Z,485
2016-06-22T10:13:33.348Z,475
2016-06-22T10:14:33.996Z,495
2016-06-22T10:15:33.470Z,470
2016-06-22T10:16:34.096Z,415
2016-06-22T10:17:33.491Z,370
2016-06-22T10:18:33.478Z,390
2016-06-22T10:19:33.571Z,390
2016-06-22T10:20:33.406Z,375
2016-06-22T10:21:33.953Z,405
2016-06-22T10:22:33.386Z,425
2016-06-22T10:23:33.394Z,430
2016-06-22T10:24:33.563Z,425
2016-06-22T10:25:33.393Z,395
2016-06-22T10:26:33.359Z,405
2016-06-22T10:27:33.332Z,425
2016-06-22T10:28:34.029Z,445
2016-06-22T10:29:33.974Z,465
2016-06-22T10:30:34.043Z,430
2016-06-22T10:31:34.376Z,410
2016-06-22T10:32:33.407Z,405
2016-06-22T10:33:34.282Z,420
2016-06-22T10:34:33.405Z,405
2016-06-22T10:35:33.370Z,375
2016-06-22T10:36:33.386Z,340
2016-06-22T10:37:33.277Z,305
2016-06-22T10:38:33.438Z,280
2016-06-22T10:39:33.391Z,300
2016-06-22T10:40:33.358Z,300
2016-06-22T10:41:33.416Z,275
2016-06-22T10:42:33.478Z,275
2016-06-22T10:43:33.322Z,330
2016-06-22T10:44:33.469Z,380
2016-06-22T10:45:33.623Z,400
2016-06-22T10:46:34.115Z,415
2016-06-22T10:47:33.416Z,395
2016-06-22T10:48:33.449Z,380
2016-06-22T10:49:33.455Z,380
2016-06-22T10:50:33.456Z,345
2016-06-22T10:51:33.521Z,320
2016-06-22T10:52:33.473Z,335
2016-06-22T10:53:34.299Z,330
2016-06-22T10:54:33.455Z,335
2016-06-22T10:55:34.058Z,325
2016-06-22T10:56:33.482Z,285
2016-06-22T10:57:34.085Z,320
2016-06-22T10:58:35.806Z,300
2016-06-22T10:59:33.493Z,335
2016-06-22T11:00:34.146Z,310
2016-06-22T11:01:33.632Z,320
2016-06-22T11:02:33.435Z,360
2016-06-22T11:03:33.501Z,370
2016-06-22T11:04:33.959Z,395
2016-06-22T11:05:33.950Z,405
2016-06-22T11:06:33.428Z,395
2016-06-22T11:07:33.682Z,320
2016-06-22T11:08:33.669Z,265
2016-06-22T11:09:33.370Z,245
2016-06-22T11:10:33.450Z,235
2016-06-22T11:11:35.092Z,230
2016-06-22T11:12:33.394Z,230
2016-06-22T11:13:33.419Z,240
2016-06-22T11:14:34.162Z,220
2016-06-22T11:15:33.308Z,265
2016-06-22T11:16:34.421Z,280
2016-06-22T11:17:33.304Z,290
2016-06-22T11:18:33.488Z,290
2016-06-22T11:19:34.348Z,315
2016-06-22T11:20:33.401Z,365
2016-06-22T11:21:33.798Z,405
2016-06-22T11:22:34.058Z,450
2016-06-22T11:23:33.635Z,485
2016-06-22T11:24:34.376Z,465
2016-06-22T11:25:34.280Z,465
2016-06-22T11:26:33.451Z,450
2016-06-22T11:27:33.401Z,395
2016-06-22T11:28:33.490Z,370
2016-06-22T11:29:33.478Z,365
2016-06-22T11:30:33.446Z,330
2016-06-22T11:31:33.405Z,320
2016-06-22T11:32:33.461Z,320
2016-06-22T11:33:33.369Z,325
2016-06-22T11:34:33.446Z,295
2016-06-22T11:35:33.509Z,260
2016-06-22T11:36:33.598Z,235
2016-06-22T11:37:33.381Z,220
2016-06-22T11:38:33.926Z,200
2016-06-22T11:39:33.494Z,185
2016-06-22T11:40:33.638Z,215
2016-06-22T11:41:33.417Z,275
2016-06-22T11:42:33.443Z,280
2016-06-22T11:43:34.675Z,245
2016-06-22T11:44:33.542Z,240
2016-06-22T11:45:33.447Z,235
2016-06-22T11:46:33.670Z,230
2016-06-22T11:47:34.177Z,230
2016-06-22T11:48:33.549Z,250
2016-06-22T11:49:34.058Z,260
2016-06-22T11:50:33.646Z,260
2016-06-22T11:51:34.714Z,280
2016-06-22T11:52:33.542Z,325
2016-06-22T11:53:33.602Z,330
2016-06-22T11:54:33.745Z,330
2016-06-22T11:55:33.541Z,315
2016-06-22T11:56:33.674Z,300
2016-06-22T11:57:33.628Z,290
2016-06-22T11:58:33.592Z,280
2016-06-22T11:59:33.463Z,265
2016-06-22T12:00:33.438Z,250
2016-06-22T12:01:33.561Z,240
2016-06-22T12:02:33.575Z,240
2016-06-22T12:03:33.545Z,295
2016-06-22T12:04:33.551Z,330
2016-06-22T12:05:34.209Z,335
2016-06-22T12:06:33.732Z,350
2016-06-22T12:07:33.658Z,380
2016-06-22T12:08:33.782Z,410
2016-06-22T12:09:33.562Z,370
2016-06-22T12:10:33.591Z,315
2016-06-22T12:11:33.628Z,310
2016-06-22T12:12:33.522Z,325
2016-06-22T12:13:33.503Z,335
2016-06-22T12:14:33.376Z,290
2016-06-22T12:15:33.466Z,260
2016-06-22T12:16:33.567Z,260
2016-06-22T12:17:33.757Z,315
2016-06-22T12:18:33.641Z,380
2016-06-22T12:19:33.633Z,435
2016-06-22T12:20:33.560Z,445
2016-06-22T12:21:53.687Z,400
2016-06-22T12:22:33.643Z,380
2016-06-22T12:23:33.623Z,335
2016-06-22T12:24:33.590Z,305
2016-06-22T12:25:33.591Z,315
2016-06-22T12:26:33.629Z,350
2016-06-22T12:27:33.596Z,400
2016-06-22T12:28:33.606Z,405
2016-06-22T12:29:33.499Z,375
2016-06-22T12:30:33.518Z,325
2016-06-22T12:31:33.562Z,300
2016-06-22T12:32:33.666Z,305
2016-06-22T12:33:33.765Z,290
2016-06-22T12:34:33.696Z,270
2016-06-22T12:35:33.690Z,295
2016-06-22T12:36:34.392Z,275
2016-06-22T12:37:33.710Z,275
2016-06-22T12:38:33.727Z,270
2016-06-22T12:39:33.659Z,255
2016-06-22T12:42:00.350Z,270
2016-06-22T12:44:06.818Z,320
2016-06-22T12:45:06.618Z,355
2016-06-22T12:46:06.706Z,380
2016-06-22T12:47:06.592Z,410
2016-06-22T12:48:06.804Z,415
2016-06-22T12:49:06.735Z,425
2016-06-22T12:50:06.694Z,430
2016-06-22T12:51:06.719Z,440
2016-06-22T12:52:06.591Z,440
2016-06-22T12:53:06.898Z,425
2016-06-22T12:54:06.598Z,410
2016-06-22T12:55:06.622Z,390
2016-06-22T12:56:06.717Z,395
2016-06-22T12:57:06.690Z,415
2016-06-22T12:58:06.587Z,455
2016-06-22T12:59:06.816Z,480
2016-06-22T13:00:06.703Z,495
2016-06-22T13:01:06.550Z,500
2016-06-22T13:02:08.110Z,500
2016-06-22T13:03:06.790Z,510
2016-06-22T13:04:06.790Z,485
2016-06-22T13:05:06.809Z,430
2016-06-22T13:06:08.121Z,390
2016-06-22T13:07:06.907Z,355
2016-06-22T13:08:06.688Z,325
2016-06-22T13:09:06.690Z,310
2016-06-22T13:10:06.719Z,300
2016-06-22T13:11:06.739Z,310
2016-06-22T13:12:06.718Z,340
2016-06-22T13:13:06.680Z,380
2016-06-22T13:14:06.695Z,410
2016-06-22T13:15:06.658Z,415
2016-06-22T13:16:06.577Z,410
2016-06-22T13:17:07.104Z,375
2016-06-22T13:18:06.837Z,320
2016-06-22T13:19:06.890Z,285
2016-06-22T13:20:06.768Z,270
2016-06-22T13:21:06.745Z,290
2016-06-22T13:22:06.891Z,340
2016-06-22T13:23:06.686Z,415
2016-06-22T13:24:06.989Z,490
2016-06-22T13:25:07.185Z,525
2016-06-22T13:26:06.649Z,530
2016-06-22T13:27:07.161Z,520
2016-06-22T13:28:08.382Z,485
2016-06-22T13:29:09.092Z,435
2016-06-22T13:30:07.237Z,425
2016-06-22T13:31:06.821Z,380
2016-06-22T13:32:06.754Z,340
2016-06-22T13:33:06.781Z,305
2016-06-22T13:34:06.845Z,295
2016-06-22T13:35:06.875Z,305
2016-06-22T13:36:06.707Z,350
2016-06-22T13:37:07.759Z,375
2016-06-22T13:38:06.857Z,390
2016-06-22T13:39:07.428Z,390
2016-06-22T13:40:06.845Z,395
2016-06-22T13:41:07.438Z,415
2016-06-22T13:42:07.507Z,440
2016-06-22T13:43:06.736Z,455
2016-06-22T13:44:06.839Z,475
2016-06-22T13:45:06.927Z,480
2016-06-22T13:46:06.991Z,475
2016-06-22T13:47:07.463Z,470
2016-06-22T13:48:06.930Z,465
2016-06-22T13:49:06.933Z,450
2016-06-22T13:50:08.012Z,425
2016-06-22T13:51:06.721Z,420
2016-06-22T13:52:06.890Z,410
2016-06-22T13:53:06.855Z,410
2016-06-22T13:54:06.700Z,400
2016-06-22T13:55:06.707Z,395
2016-06-22T13:56:06.770Z,395
2016-06-22T13:57:06.675Z,390
2016-06-22T13:58:06.644Z,380
2016-06-22T13:59:06.718Z,375
2016-06-22T14:00:07.147Z,380
2016-06-22T14:01:06.730Z,385
2016-06-22T14:02:08.180Z,375
2016-06-22T14:03:06.916Z,380
2016-06-22T14:04:06.810Z,395
2016-06-22T14:05:06.890Z,385
2016-06-22T14:06:06.890Z,375
2016-06-22T14:07:06.894Z,395
2016-06-22T14:08:06.837Z,415
2016-06-22T14:09:06.708Z,425
2016-06-22T14:10:06.796Z,435
2016-06-22T14:11:06.641Z,430
2016-06-22T14:12:06.816Z,420
2016-06-22T14:13:06.795Z,400
2016-06-22T14:14:06.963Z,405
2016-06-22T14:16:23.356Z,400
2016-06-22T14:16:33.921Z,395
2016-06-22T14:17:34.119Z,395